sensor_id;sensor_type;location;lat;lon;timestamp;P1;durP1;ratioP1;P2;durP2;ratioP2
48098;SDS011;33877;47.444;18.934;2022-08-21T00:01:21;4.18;;;2.35;;
48098;SDS011;33877;47.444;18.934;2022-08-21T00:03:57;5.20;;;2.87;;
48098;SDS011;33877;47.444;18.934;2022-08-21T00:06:43;4.97;;;3.08;;
48098;SDS011;33877;47.444;18.934;2022-08-21T00:09:27;5.28;;;2.70;;
48098;SDS011;33877;47.444;18.934;2022-08-21T00:12:05;4.93;;;2.72;;
48098;SDS011;33877;47.444;18.934;2022-08-21T00:14:46;4.97;;;3.00;;
48098;SDS011;33877;47.444;18.934;2022-08-21T00:17:26;5.60;;;3.20;;
48098;SDS011;33877;47.444;18.934;2022-08-21T00:19:59;4.97;;;2.87;;
48098;SDS011;33877;47.444;18.934;2022-08-21T00:22:36;4.50;;;2.75;;
48098;SDS011;33877;47.444;18.934;2022-08-21T00:25:09;5.75;;;3.17;;
48098;SDS011;33877;47.444;18.934;2022-08-21T00:27:46;5.00;;;3.03;;
48098;SDS011;33877;47.444;18.934;2022-08-21T00:30:25;4.50;;;2.70;;
48098;SDS011;33877;47.444;18.934;2022-08-21T00:32:58;5.12;;;3.15;;
48098;SDS011;33877;47.444;18.934;2022-08-21T00:35:34;4.72;;;2.70;;
48098;SDS011;33877;47.444;18.934;2022-08-21T00:38:07;5.43;;;3.17;;
48098;SDS011;33877;47.444;18.934;2022-08-21T00:40:47;7.28;;;3.28;;
48098;SDS011;33877;47.444;18.934;2022-08-21T00:43:30;5.20;;;3.00;;
48098;SDS011;33877;47.444;18.934;2022-08-21T00:46:06;4.75;;;2.70;;
48098;SDS011;33877;47.444;18.934;2022-08-21T00:48:36;5.68;;;3.25;;
48098;SDS011;33877;47.444;18.934;2022-08-21T00:51:20;7.00;;;3.42;;
48098;SDS011;33877;47.444;18.934;2022-08-21T00:54:00;9.68;;;3.70;;
48098;SDS011;33877;47.444;18.934;2022-08-21T00:56:40;6.95;;;3.80;;
48098;SDS011;33877;47.444;18.934;2022-08-21T00:59:20;8.55;;;4.03;;
48098;SDS011;33877;47.444;18.934;2022-08-21T01:02:08;5.62;;;3.65;;
48098;SDS011;33877;47.444;18.934;2022-08-21T01:04:47;7.18;;;4.53;;
48098;SDS011;33877;47.444;18.934;2022-08-21T01:07:27;6.87;;;4.07;;
48098;SDS011;33877;47.444;18.934;2022-08-21T01:10:01;6.90;;;4.57;;
48098;SDS011;33877;47.444;18.934;2022-08-21T01:12:47;6.60;;;4.30;;
48098;SDS011;33877;47.444;18.934;2022-08-21T01:15:20;7.75;;;4.50;;
48098;SDS011;33877;47.444;18.934;2022-08-21T01:18:04;8.32;;;4.90;;
48098;SDS011;33877;47.444;18.934;2022-08-21T01:20:41;8.30;;;4.40;;
48098;SDS011;33877;47.444;18.934;2022-08-21T01:23:19;7.15;;;3.75;;
48098;SDS011;33877;47.444;18.934;2022-08-21T01:26:00;6.68;;;4.10;;
48098;SDS011;33877;47.444;18.934;2022-08-21T01:28:40;10.27;;;4.50;;
48098;SDS011;33877;47.444;18.934;2022-08-21T01:31:19;7.30;;;4.12;;
48098;SDS011;33877;47.444;18.934;2022-08-21T01:33:53;6.53;;;4.25;;
48098;SDS011;33877;47.444;18.934;2022-08-21T01:36:29;9.13;;;4.70;;
48098;SDS011;33877;47.444;18.934;2022-08-21T01:39:03;8.27;;;4.78;;
48098;SDS011;33877;47.444;18.934;2022-08-21T01:41:37;6.82;;;4.68;;
48098;SDS011;33877;47.444;18.934;2022-08-21T01:44:14;8.15;;;4.95;;
48098;SDS011;33877;47.444;18.934;2022-08-21T01:49:26;7.68;;;4.18;;
48098;SDS011;33877;47.444;18.934;2022-08-21T01:52:01;6.65;;;4.05;;
48098;SDS011;33877;47.444;18.934;2022-08-21T01:54:37;7.72;;;4.72;;
48098;SDS011;33877;47.444;18.934;2022-08-21T01:57:12;9.73;;;5.40;;
48098;SDS011;33877;47.444;18.934;2022-08-21T01:59:47;11.52;;;5.65;;
48098;SDS011;33877;47.444;18.934;2022-08-21T02:02:19;9.00;;;4.50;;
48098;SDS011;33877;47.444;18.934;2022-08-21T02:04:57;10.48;;;5.72;;
48098;SDS011;33877;47.444;18.934;2022-08-21T02:07:40;9.85;;;5.45;;
48098;SDS011;33877;47.444;18.934;2022-08-21T02:10:22;12.30;;;6.15;;
48098;SDS011;33877;47.444;18.934;2022-08-21T02:12:58;9.35;;;5.65;;
48098;SDS011;33877;47.444;18.934;2022-08-21T02:15:34;10.25;;;5.62;;
48098;SDS011;33877;47.444;18.934;2022-08-21T02:18:13;10.65;;;5.93;;
48098;SDS011;33877;47.444;18.934;2022-08-21T02:20:54;8.63;;;6.10;;
48098;SDS011;33877;47.444;18.934;2022-08-21T02:23:31;9.98;;;5.85;;
48098;SDS011;33877;47.444;18.934;2022-08-21T02:26:05;7.28;;;4.80;;
48098;SDS011;33877;47.444;18.934;2022-08-21T02:28:43;10.10;;;6.60;;
48098;SDS011;33877;47.444;18.934;2022-08-21T02:31:27;10.52;;;5.60;;
48098;SDS011;33877;47.444;18.934;2022-08-21T02:34:01;10.23;;;6.45;;
48098;SDS011;33877;47.444;18.934;2022-08-21T02:36:40;9.38;;;5.80;;
48098;SDS011;33877;47.444;18.934;2022-08-21T02:39:26;10.50;;;6.12;;
48098;SDS011;33877;47.444;18.934;2022-08-21T02:42:04;11.80;;;5.85;;
48098;SDS011;33877;47.444;18.934;2022-08-21T02:44:39;10.57;;;5.53;;
48098;SDS011;33877;47.444;18.934;2022-08-21T02:47:14;9.85;;;6.20;;
48098;SDS011;33877;47.444;18.934;2022-08-21T02:49:47;10.13;;;6.47;;
48098;SDS011;33877;47.444;18.934;2022-08-21T02:52:23;12.82;;;6.62;;
48098;SDS011;33877;47.444;18.934;2022-08-21T02:54:57;10.73;;;5.82;;
48098;SDS011;33877;47.444;18.934;2022-08-21T02:57:33;9.88;;;6.60;;
48098;SDS011;33877;47.444;18.934;2022-08-21T03:00:07;10.35;;;6.18;;
48098;SDS011;33877;47.444;18.934;2022-08-21T03:02:45;10.45;;;6.62;;
48098;SDS011;33877;47.444;18.934;2022-08-21T03:05:30;9.70;;;6.43;;
48098;SDS011;33877;47.444;18.934;2022-08-21T03:08:03;10.38;;;6.20;;
48098;SDS011;33877;47.444;18.934;2022-08-21T03:10:49;11.65;;;5.93;;
48098;SDS011;33877;47.444;18.934;2022-08-21T03:13:27;9.13;;;6.55;;
48098;SDS011;33877;47.444;18.934;2022-08-21T03:16:04;10.02;;;5.78;;
48098;SDS011;33877;47.444;18.934;2022-08-21T03:18:46;10.45;;;5.85;;
48098;SDS011;33877;47.444;18.934;2022-08-21T03:21:19;10.82;;;6.10;;
48098;SDS011;33877;47.444;18.934;2022-08-21T03:24:15;10.60;;;5.87;;
48098;SDS011;33877;47.444;18.934;2022-08-21T03:26:47;12.25;;;6.37;;
48098;SDS011;33877;47.444;18.934;2022-08-21T03:29:21;11.32;;;6.57;;
48098;SDS011;33877;47.444;18.934;2022-08-21T03:31:59;10.63;;;6.43;;
48098;SDS011;33877;47.444;18.934;2022-08-21T03:34:40;10.67;;;7.00;;
48098;SDS011;33877;47.444;18.934;2022-08-21T03:37:17;11.20;;;6.45;;
48098;SDS011;33877;47.444;18.934;2022-08-21T03:39:55;11.12;;;7.00;;
48098;SDS011;33877;47.444;18.934;2022-08-21T03:42:34;10.55;;;6.93;;
48098;SDS011;33877;47.444;18.934;2022-08-21T03:45:17;12.00;;;6.78;;
48098;SDS011;33877;47.444;18.934;2022-08-21T03:47:55;11.32;;;7.10;;
48098;SDS011;33877;47.444;18.934;2022-08-21T03:50:34;11.75;;;6.50;;
48098;SDS011;33877;47.444;18.934;2022-08-21T03:53:16;10.95;;;7.57;;
48098;SDS011;33877;47.444;18.934;2022-08-21T03:55:58;12.20;;;6.57;;
48098;SDS011;33877;47.444;18.934;2022-08-21T03:58:36;10.23;;;7.20;;
48098;SDS011;33877;47.444;18.934;2022-08-21T04:01:14;13.00;;;7.53;;
48098;SDS011;33877;47.444;18.934;2022-08-21T04:03:51;11.32;;;7.22;;
48098;SDS011;33877;47.444;18.934;2022-08-21T04:06:26;9.90;;;6.60;;
48098;SDS011;33877;47.444;18.934;2022-08-21T04:09:04;10.63;;;7.20;;
48098;SDS011;33877;47.444;18.934;2022-08-21T04:11:37;12.90;;;7.57;;
48098;SDS011;33877;47.444;18.934;2022-08-21T04:14:14;10.32;;;6.95;;
48098;SDS011;33877;47.444;18.934;2022-08-21T04:16:58;11.40;;;6.80;;
48098;SDS011;33877;47.444;18.934;2022-08-21T04:19:41;10.95;;;7.40;;
48098;SDS011;33877;47.444;18.934;2022-08-21T04:22:19;11.57;;;6.70;;
48098;SDS011;33877;47.444;18.934;2022-08-21T04:24:53;10.63;;;7.25;;
48098;SDS011;33877;47.444;18.934;2022-08-21T04:27:28;12.48;;;7.25;;
48098;SDS011;33877;47.444;18.934;2022-08-21T04:30:04;11.70;;;7.10;;
48098;SDS011;33877;47.444;18.934;2022-08-21T04:32:45;12.00;;;7.53;;
48098;SDS011;33877;47.444;18.934;2022-08-21T04:35:21;10.18;;;7.40;;
48098;SDS011;33877;47.444;18.934;2022-08-21T04:38:05;10.77;;;6.25;;
48098;SDS011;33877;47.444;18.934;2022-08-21T04:40:42;10.30;;;6.85;;
48098;SDS011;33877;47.444;18.934;2022-08-21T04:43:17;10.32;;;6.75;;
48098;SDS011;33877;47.444;18.934;2022-08-21T04:45:53;9.10;;;6.53;;
48098;SDS011;33877;47.444;18.934;2022-08-21T04:48:31;11.63;;;6.57;;
48098;SDS011;33877;47.444;18.934;2022-08-21T04:51:22;9.35;;;6.35;;
48098;SDS011;33877;47.444;18.934;2022-08-21T04:54:10;8.93;;;5.40;;
48098;SDS011;33877;47.444;18.934;2022-08-21T04:56:55;10.05;;;5.57;;
48098;SDS011;33877;47.444;18.934;2022-08-21T04:59:41;9.57;;;5.43;;
48098;SDS011;33877;47.444;18.934;2022-08-21T05:02:17;9.43;;;5.43;;
48098;SDS011;33877;47.444;18.934;2022-08-21T05:04:50;9.05;;;5.20;;
48098;SDS011;33877;47.444;18.934;2022-08-21T05:07:27;7.85;;;4.28;;
48098;SDS011;33877;47.444;18.934;2022-08-21T05:10:09;8.15;;;4.95;;
48098;SDS011;33877;47.444;18.934;2022-08-21T05:12:47;8.30;;;5.10;;
48098;SDS011;33877;47.444;18.934;2022-08-21T05:15:19;7.10;;;4.50;;
48098;SDS011;33877;47.444;18.934;2022-08-21T05:17:52;7.93;;;4.90;;
48098;SDS011;33877;47.444;18.934;2022-08-21T05:20:28;6.97;;;4.45;;
48098;SDS011;33877;47.444;18.934;2022-08-21T05:23:10;7.47;;;4.75;;
48098;SDS011;33877;47.444;18.934;2022-08-21T05:25:40;6.68;;;4.20;;
48098;SDS011;33877;47.444;18.934;2022-08-21T05:28:12;7.00;;;4.57;;
48098;SDS011;33877;47.444;18.934;2022-08-21T05:30:54;7.10;;;4.28;;
48098;SDS011;33877;47.444;18.934;2022-08-21T05:33:28;6.68;;;3.85;;
48098;SDS011;33877;47.444;18.934;2022-08-21T05:36:12;8.25;;;4.28;;
48098;SDS011;33877;47.444;18.934;2022-08-21T05:38:48;7.47;;;4.55;;
48098;SDS011;33877;47.444;18.934;2022-08-21T05:41:19;6.93;;;4.15;;
48098;SDS011;33877;47.444;18.934;2022-08-21T05:43:56;7.85;;;3.72;;
48098;SDS011;33877;47.444;18.934;2022-08-21T05:46:31;6.85;;;4.22;;
48098;SDS011;33877;47.444;18.934;2022-08-21T05:49:08;5.72;;;3.85;;
48098;SDS011;33877;47.444;18.934;2022-08-21T05:51:41;6.30;;;3.80;;
48098;SDS011;33877;47.444;18.934;2022-08-21T05:54:19;6.85;;;4.45;;
48098;SDS011;33877;47.444;18.934;2022-08-21T05:56:59;6.22;;;3.65;;
48098;SDS011;33877;47.444;18.934;2022-08-21T05:59:36;6.18;;;3.75;;
48098;SDS011;33877;47.444;18.934;2022-08-21T06:02:17;8.27;;;4.00;;
48098;SDS011;33877;47.444;18.934;2022-08-21T06:04:52;7.22;;;3.62;;
48098;SDS011;33877;47.444;18.934;2022-08-21T06:07:27;5.72;;;3.70;;
48098;SDS011;33877;47.444;18.934;2022-08-21T06:09:58;7.80;;;3.95;;
48098;SDS011;33877;47.444;18.934;2022-08-21T06:12:43;6.62;;;3.50;;
48098;SDS011;33877;47.444;18.934;2022-08-21T06:15:24;6.37;;;2.95;;
48098;SDS011;33877;47.444;18.934;2022-08-21T06:18:00;6.95;;;3.92;;
48098;SDS011;33877;47.444;18.934;2022-08-21T06:20:35;7.28;;;3.92;;
48098;SDS011;33877;47.444;18.934;2022-08-21T06:23:06;6.35;;;3.60;;
48098;SDS011;33877;47.444;18.934;2022-08-21T06:25:51;5.87;;;3.30;;
48098;SDS011;33877;47.444;18.934;2022-08-21T06:28:22;6.82;;;3.95;;
48098;SDS011;33877;47.444;18.934;2022-08-21T06:31:00;5.72;;;3.67;;
48098;SDS011;33877;47.444;18.934;2022-08-21T06:33:32;6.25;;;3.75;;
48098;SDS011;33877;47.444;18.934;2022-08-21T06:36:10;6.55;;;3.67;;
48098;SDS011;33877;47.444;18.934;2022-08-21T06:38:43;5.87;;;3.78;;
48098;SDS011;33877;47.444;18.934;2022-08-21T06:41:21;5.50;;;3.30;;
48098;SDS011;33877;47.444;18.934;2022-08-21T06:44:05;7.40;;;3.60;;
48098;SDS011;33877;47.444;18.934;2022-08-21T06:46:42;6.47;;;3.62;;
48098;SDS011;33877;47.444;18.934;2022-08-21T06:49:17;6.37;;;3.85;;
48098;SDS011;33877;47.444;18.934;2022-08-21T06:51:53;6.85;;;4.10;;
48098;SDS011;33877;47.444;18.934;2022-08-21T06:54:29;5.95;;;3.70;;
48098;SDS011;33877;47.444;18.934;2022-08-21T06:57:03;7.28;;;4.12;;
48098;SDS011;33877;47.444;18.934;2022-08-21T06:59:36;6.37;;;3.90;;
48098;SDS011;33877;47.444;18.934;2022-08-21T07:02:15;7.68;;;3.58;;
48098;SDS011;33877;47.444;18.934;2022-08-21T07:04:49;5.85;;;3.42;;
48098;SDS011;33877;47.444;18.934;2022-08-21T07:07:29;5.87;;;3.75;;
48098;SDS011;33877;47.444;18.934;2022-08-21T07:10:03;7.05;;;3.58;;
48098;SDS011;33877;47.444;18.934;2022-08-21T07:12:53;6.78;;;3.83;;
48098;SDS011;33877;47.444;18.934;2022-08-21T07:15:28;6.25;;;3.60;;
48098;SDS011;33877;47.444;18.934;2022-08-21T07:17:59;7.60;;;3.95;;
48098;SDS011;33877;47.444;18.934;2022-08-21T07:20:31;6.93;;;3.75;;
48098;SDS011;33877;47.444;18.934;2022-08-21T07:23:06;5.82;;;3.85;;
48098;SDS011;33877;47.444;18.934;2022-08-21T07:25:41;10.55;;;3.95;;
48098;SDS011;33877;47.444;18.934;2022-08-21T07:28:15;5.87;;;3.55;;
48098;SDS011;33877;47.444;18.934;2022-08-21T07:30:51;7.50;;;3.35;;
48098;SDS011;33877;47.444;18.934;2022-08-21T07:33:27;7.40;;;3.60;;
48098;SDS011;33877;47.444;18.934;2022-08-21T07:36:01;7.72;;;3.80;;
48098;SDS011;33877;47.444;18.934;2022-08-21T07:38:33;5.65;;;3.22;;
48098;SDS011;33877;47.444;18.934;2022-08-21T07:41:15;6.32;;;3.50;;
48098;SDS011;33877;47.444;18.934;2022-08-21T07:44:02;6.53;;;3.70;;
48098;SDS011;33877;47.444;18.934;2022-08-21T07:46:38;6.35;;;3.70;;
48098;SDS011;33877;47.444;18.934;2022-08-21T07:49:19;8.03;;;3.87;;
48098;SDS011;33877;47.444;18.934;2022-08-21T07:51:56;6.55;;;3.87;;
48098;SDS011;33877;47.444;18.934;2022-08-21T07:54:30;7.03;;;3.50;;
48098;SDS011;33877;47.444;18.934;2022-08-21T07:57:13;7.65;;;4.15;;
48098;SDS011;33877;47.444;18.934;2022-08-21T07:59:49;7.32;;;4.05;;
48098;SDS011;33877;47.444;18.934;2022-08-21T08:02:24;8.10;;;4.05;;
48098;SDS011;33877;47.444;18.934;2022-08-21T08:05:06;5.28;;;3.40;;
48098;SDS011;33877;47.444;18.934;2022-08-21T08:07:42;6.87;;;3.70;;
48098;SDS011;33877;47.444;18.934;2022-08-21T08:10:19;5.62;;;3.45;;
48098;SDS011;33877;47.444;18.934;2022-08-21T08:13:01;6.35;;;3.58;;
48098;SDS011;33877;47.444;18.934;2022-08-21T08:15:33;8.50;;;4.97;;
48098;SDS011;33877;47.444;18.934;2022-08-21T08:18:14;7.70;;;3.90;;
48098;SDS011;33877;47.444;18.934;2022-08-21T08:20:56;6.50;;;3.70;;
48098;SDS011;33877;47.444;18.934;2022-08-21T08:23:38;7.93;;;4.40;;
48098;SDS011;33877;47.444;18.934;2022-08-21T08:26:22;8.32;;;4.62;;
48098;SDS011;33877;47.444;18.934;2022-08-21T08:29:05;6.53;;;4.10;;
48098;SDS011;33877;47.444;18.934;2022-08-21T08:31:43;7.00;;;4.00;;
48098;SDS011;33877;47.444;18.934;2022-08-21T08:34:20;5.72;;;3.83;;
48098;SDS011;33877;47.444;18.934;2022-08-21T08:36:56;5.37;;;3.37;;
48098;SDS011;33877;47.444;18.934;2022-08-21T08:39:39;5.95;;;4.25;;
48098;SDS011;33877;47.444;18.934;2022-08-21T08:47:53;5.93;;;3.70;;
48098;SDS011;33877;47.444;18.934;2022-08-21T08:53:56;7.15;;;3.70;;
48098;SDS011;33877;47.444;18.934;2022-08-21T08:56:46;6.75;;;3.75;;
48098;SDS011;33877;47.444;18.934;2022-08-21T08:59:47;6.37;;;3.67;;
48098;SDS011;33877;47.444;18.934;2022-08-21T09:02:35;6.72;;;3.90;;
48098;SDS011;33877;47.444;18.934;2022-08-21T09:05:30;7.30;;;4.10;;
48098;SDS011;33877;47.444;18.934;2022-08-21T09:08:58;9.70;;;4.05;;
48098;SDS011;33877;47.444;18.934;2022-08-21T09:18:10;5.53;;;3.60;;
48098;SDS011;33877;47.444;18.934;2022-08-21T09:30:05;5.78;;;3.72;;
48098;SDS011;33877;47.444;18.934;2022-08-21T09:32:49;6.80;;;4.30;;
48098;SDS011;33877;47.444;18.934;2022-08-21T09:35:34;6.12;;;3.90;;
48098;SDS011;33877;47.444;18.934;2022-08-21T09:38:41;7.25;;;4.53;;
48098;SDS011;33877;47.444;18.934;2022-08-21T09:41:38;6.87;;;4.12;;
48098;SDS011;33877;47.444;18.934;2022-08-21T09:45:00;7.05;;;4.45;;
48098;SDS011;33877;47.444;18.934;2022-08-21T09:48:09;7.37;;;4.78;;
48098;SDS011;33877;47.444;18.934;2022-08-21T09:51:09;7.00;;;3.83;;
48098;SDS011;33877;47.444;18.934;2022-08-21T09:54:26;7.10;;;4.35;;
48098;SDS011;33877;47.444;18.934;2022-08-21T09:57:31;6.70;;;4.47;;
48098;SDS011;33877;47.444;18.934;2022-08-21T10:00:34;6.25;;;3.90;;
48098;SDS011;33877;47.444;18.934;2022-08-21T10:03:42;9.25;;;4.62;;
48098;SDS011;33877;47.444;18.934;2022-08-21T10:06:28;7.53;;;4.12;;
48098;SDS011;33877;47.444;18.934;2022-08-21T10:09:13;6.50;;;4.00;;
48098;SDS011;33877;47.444;18.934;2022-08-21T10:21:01;6.70;;;4.53;;
48098;SDS011;33877;47.444;18.934;2022-08-21T10:36:16;7.22;;;4.15;;
48098;SDS011;33877;47.444;18.934;2022-08-21T10:39:24;6.65;;;3.87;;
48098;SDS011;33877;47.444;18.934;2022-08-21T10:50:10;6.60;;;4.50;;
48098;SDS011;33877;47.444;18.934;2022-08-21T10:53:36;7.07;;;4.30;;
48098;SDS011;33877;47.444;18.934;2022-08-21T11:01:11;7.87;;;4.10;;
48098;SDS011;33877;47.444;18.934;2022-08-21T11:08:50;6.62;;;3.87;;
48098;SDS011;33877;47.444;18.934;2022-08-21T11:16:33;6.47;;;4.12;;
48098;SDS011;33877;47.444;18.934;2022-08-21T11:21:04;7.37;;;4.72;;
48098;SDS011;33877;47.444;18.934;2022-08-21T11:24:24;8.30;;;3.90;;
48098;SDS011;33877;47.444;18.934;2022-08-21T11:28:50;6.47;;;3.95;;
48098;SDS011;33877;47.444;18.934;2022-08-21T11:32:08;5.85;;;3.78;;
48098;SDS011;33877;47.444;18.934;2022-08-21T11:35:39;4.90;;;3.28;;
48098;SDS011;33877;47.444;18.934;2022-08-21T11:50:26;6.55;;;3.97;;
48098;SDS011;33877;47.444;18.934;2022-08-21T11:53:46;7.80;;;4.50;;
48098;SDS011;33877;47.444;18.934;2022-08-21T12:01:01;6.80;;;4.25;;
48098;SDS011;33877;47.444;18.934;2022-08-21T12:12:38;7.60;;;4.07;;
48098;SDS011;33877;47.444;18.934;2022-08-21T12:16:39;6.75;;;4.32;;
48098;SDS011;33877;47.444;18.934;2022-08-21T12:24:06;6.55;;;4.07;;
48098;SDS011;33877;47.444;18.934;2022-08-21T12:28:14;7.85;;;3.97;;
48098;SDS011;33877;47.444;18.934;2022-08-21T12:31:33;6.93;;;4.22;;
48098;SDS011;33877;47.444;18.934;2022-08-21T12:35:05;6.65;;;3.92;;
48098;SDS011;33877;47.444;18.934;2022-08-21T12:38:25;7.07;;;4.05;;
48098;SDS011;33877;47.444;18.934;2022-08-21T12:45:52;6.37;;;4.25;;
48098;SDS011;33877;47.444;18.934;2022-08-21T12:49:18;6.32;;;3.58;;
48098;SDS011;33877;47.444;18.934;2022-08-21T12:56:58;6.30;;;3.58;;
48098;SDS011;33877;47.444;18.934;2022-08-21T13:00:13;6.53;;;3.90;;
48098;SDS011;33877;47.444;18.934;2022-08-21T13:03:46;5.47;;;3.33;;
48098;SDS011;33877;47.444;18.934;2022-08-21T13:07:11;5.85;;;3.55;;
48098;SDS011;33877;47.444;18.934;2022-08-21T13:10:41;4.82;;;2.75;;
48098;SDS011;33877;47.444;18.934;2022-08-21T13:14:25;5.60;;;2.80;;
48098;SDS011;33877;47.444;18.934;2022-08-21T13:21:29;4.68;;;2.40;;
48098;SDS011;33877;47.444;18.934;2022-08-21T13:24:34;3.45;;;1.85;;
48098;SDS011;33877;47.444;18.934;2022-08-21T13:28:11;3.97;;;1.85;;
48098;SDS011;33877;47.444;18.934;2022-08-21T13:31:20;3.93;;;1.90;;
48098;SDS011;33877;47.444;18.934;2022-08-21T13:34:34;3.92;;;1.87;;
48098;SDS011;33877;47.444;18.934;2022-08-21T13:37:48;5.03;;;1.67;;
48098;SDS011;33877;47.444;18.934;2022-08-21T13:41:51;4.37;;;1.65;;
48098;SDS011;33877;47.444;18.934;2022-08-21T13:45:02;5.07;;;2.05;;
48098;SDS011;33877;47.444;18.934;2022-08-21T13:48:14;5.20;;;2.72;;
48098;SDS011;33877;47.444;18.934;2022-08-21T13:51:54;4.03;;;2.10;;
48098;SDS011;33877;47.444;18.934;2022-08-21T13:58:49;5.68;;;1.80;;
48098;SDS011;33877;47.444;18.934;2022-08-21T14:02:23;2.95;;;1.62;;
48098;SDS011;33877;47.444;18.934;2022-08-21T14:06:16;5.07;;;1.80;;
48098;SDS011;33877;47.444;18.934;2022-08-21T14:09:45;3.97;;;1.90;;
48098;SDS011;33877;47.444;18.934;2022-08-21T14:17:28;3.62;;;1.80;;
48098;SDS011;33877;47.444;18.934;2022-08-21T14:21:04;3.37;;;1.60;;
48098;SDS011;33877;47.444;18.934;2022-08-21T14:24:42;2.83;;;1.65;;
48098;SDS011;33877;47.444;18.934;2022-08-21T14:31:27;3.15;;;1.52;;
48098;SDS011;33877;47.444;18.934;2022-08-21T14:35:04;3.85;;;1.50;;
48098;SDS011;33877;47.444;18.934;2022-08-21T14:39:02;4.90;;;1.60;;
48098;SDS011;33877;47.444;18.934;2022-08-21T14:42:12;4.03;;;1.50;;
48098;SDS011;33877;47.444;18.934;2022-08-21T14:49:12;3.20;;;1.45;;
48098;SDS011;33877;47.444;18.934;2022-08-21T14:56:39;6.55;;;1.90;;
48098;SDS011;33877;47.444;18.934;2022-08-21T14:59:32;4.57;;;1.60;;
48098;SDS011;33877;47.444;18.934;2022-08-21T15:02:37;4.80;;;1.67;;
48098;SDS011;33877;47.444;18.934;2022-08-21T15:05:50;3.80;;;1.55;;
48098;SDS011;33877;47.444;18.934;2022-08-21T15:08:40;3.30;;;1.60;;
48098;SDS011;33877;47.444;18.934;2022-08-21T15:11:47;3.70;;;1.60;;
48098;SDS011;33877;47.444;18.934;2022-08-21T15:15:22;5.07;;;1.50;;
48098;SDS011;33877;47.444;18.934;2022-08-21T15:18:15;3.47;;;1.55;;
48098;SDS011;33877;47.444;18.934;2022-08-21T15:21:10;3.45;;;1.55;;
48098;SDS011;33877;47.444;18.934;2022-08-21T15:24:14;3.62;;;1.90;;
48098;SDS011;33877;47.444;18.934;2022-08-21T15:27:02;7.10;;;2.00;;
48098;SDS011;33877;47.444;18.934;2022-08-21T15:30:02;3.67;;;1.85;;
48098;SDS011;33877;47.444;18.934;2022-08-21T15:32:57;4.57;;;1.87;;
48098;SDS011;33877;47.444;18.934;2022-08-21T15:35:46;6.00;;;1.90;;
48098;SDS011;33877;47.444;18.934;2022-08-21T15:38:50;4.62;;;1.87;;
48098;SDS011;33877;47.444;18.934;2022-08-21T15:41:50;6.05;;;2.25;;
48098;SDS011;33877;47.444;18.934;2022-08-21T15:44:58;3.67;;;1.50;;
48098;SDS011;33877;47.444;18.934;2022-08-21T15:50:48;3.65;;;1.55;;
48098;SDS011;33877;47.444;18.934;2022-08-21T15:54:04;3.70;;;1.90;;
48098;SDS011;33877;47.444;18.934;2022-08-21T15:57:18;3.37;;;1.65;;
48098;SDS011;33877;47.444;18.934;2022-08-21T16:00:41;5.05;;;1.77;;
48098;SDS011;33877;47.444;18.934;2022-08-21T16:03:33;5.07;;;1.95;;
48098;SDS011;33877;47.444;18.934;2022-08-21T16:07:02;4.45;;;1.77;;
48098;SDS011;33877;47.444;18.934;2022-08-21T16:10:17;3.55;;;1.50;;
48098;SDS011;33877;47.444;18.934;2022-08-21T16:13:38;3.95;;;1.65;;
48098;SDS011;33877;47.444;18.934;2022-08-21T16:16:56;5.15;;;1.60;;
48098;SDS011;33877;47.444;18.934;2022-08-21T16:20:11;4.37;;;1.52;;
48098;SDS011;33877;47.444;18.934;2022-08-21T16:23:35;2.67;;;1.65;;
48098;SDS011;33877;47.444;18.934;2022-08-21T16:26:51;3.30;;;1.55;;
48098;SDS011;33877;47.444;18.934;2022-08-21T16:29:57;4.37;;;1.83;;
48098;SDS011;33877;47.444;18.934;2022-08-21T16:34:06;4.07;;;1.80;;
48098;SDS011;33877;47.444;18.934;2022-08-21T16:37:33;4.10;;;1.50;;
48098;SDS011;33877;47.444;18.934;2022-08-21T16:40:22;3.60;;;1.70;;
48098;SDS011;33877;47.444;18.934;2022-08-21T16:43:31;3.58;;;1.83;;
48098;SDS011;33877;47.444;18.934;2022-08-21T16:46:28;6.12;;;1.60;;
48098;SDS011;33877;47.444;18.934;2022-08-21T16:49:51;4.03;;;1.98;;
48098;SDS011;33877;47.444;18.934;2022-08-21T16:52:55;4.22;;;2.10;;
48098;SDS011;33877;47.444;18.934;2022-08-21T16:55:58;3.42;;;1.67;;
48098;SDS011;33877;47.444;18.934;2022-08-21T16:59:16;4.05;;;2.00;;
48098;SDS011;33877;47.444;18.934;2022-08-21T17:02:51;5.00;;;2.15;;
48098;SDS011;33877;47.444;18.934;2022-08-21T17:06:14;5.03;;;1.98;;
48098;SDS011;33877;47.444;18.934;2022-08-21T17:09:45;6.78;;;2.00;;
48098;SDS011;33877;47.444;18.934;2022-08-21T17:12:56;4.75;;;2.10;;
48098;SDS011;33877;47.444;18.934;2022-08-21T17:16:33;5.40;;;2.33;;
48098;SDS011;33877;47.444;18.934;2022-08-21T17:20:12;5.05;;;2.17;;
48098;SDS011;33877;47.444;18.934;2022-08-21T17:24:06;5.35;;;2.55;;
48098;SDS011;33877;47.444;18.934;2022-08-21T17:27:34;3.78;;;1.90;;
48098;SDS011;33877;47.444;18.934;2022-08-21T17:31:18;4.87;;;1.87;;
48098;SDS011;33877;47.444;18.934;2022-08-21T17:39:09;4.72;;;1.80;;
48098;SDS011;33877;47.444;18.934;2022-08-21T17:46:38;3.70;;;1.70;;
48098;SDS011;33877;47.444;18.934;2022-08-21T17:50:32;4.45;;;1.70;;
48098;SDS011;33877;47.444;18.934;2022-08-21T17:54:27;4.25;;;1.60;;
48098;SDS011;33877;47.444;18.934;2022-08-21T17:58:24;4.47;;;1.87;;
48098;SDS011;33877;47.444;18.934;2022-08-21T18:01:47;5.27;;;1.80;;
48098;SDS011;33877;47.444;18.934;2022-08-21T18:05:25;4.30;;;1.90;;
48098;SDS011;33877;47.444;18.934;2022-08-21T18:09:03;2.97;;;1.67;;
48098;SDS011;33877;47.444;18.934;2022-08-21T18:12:32;3.65;;;2.08;;
48098;SDS011;33877;47.444;18.934;2022-08-21T18:20:02;4.03;;;1.80;;
48098;SDS011;33877;47.444;18.934;2022-08-21T18:23:58;3.75;;;1.90;;
48098;SDS011;33877;47.444;18.934;2022-08-21T18:27:42;4.30;;;1.60;;
48098;SDS011;33877;47.444;18.934;2022-08-21T18:35:20;4.15;;;1.80;;
48098;SDS011;33877;47.444;18.934;2022-08-21T18:39:06;4.32;;;2.00;;
48098;SDS011;33877;47.444;18.934;2022-08-21T18:43:24;3.60;;;1.80;;
48098;SDS011;33877;47.444;18.934;2022-08-21T18:50:42;2.12;;;1.27;;
48098;SDS011;33877;47.444;18.934;2022-08-21T18:54:39;3.53;;;1.60;;
48098;SDS011;33877;47.444;18.934;2022-08-21T18:58:27;3.10;;;1.60;;
48098;SDS011;33877;47.444;18.934;2022-08-21T19:06:03;3.97;;;1.50;;
48098;SDS011;33877;47.444;18.934;2022-08-21T19:13:56;2.60;;;1.58;;
48098;SDS011;33877;47.444;18.934;2022-08-21T19:18:21;3.28;;;1.40;;
48098;SDS011;33877;47.444;18.934;2022-08-21T19:22:34;2.67;;;1.10;;
48098;SDS011;33877;47.444;18.934;2022-08-21T19:26:04;4.62;;;1.40;;
48098;SDS011;33877;47.444;18.934;2022-08-21T19:29:35;4.68;;;1.50;;
48098;SDS011;33877;47.444;18.934;2022-08-21T19:33:55;2.62;;;1.37;;
48098;SDS011;33877;47.444;18.934;2022-08-21T19:37:57;3.00;;;1.30;;
48098;SDS011;33877;47.444;18.934;2022-08-21T19:42:13;2.70;;;1.37;;
48098;SDS011;33877;47.444;18.934;2022-08-21T19:46:57;3.17;;;1.87;;
48098;SDS011;33877;47.444;18.934;2022-08-21T19:50:17;2.45;;;1.42;;
48098;SDS011;33877;47.444;18.934;2022-08-21T19:54:18;2.42;;;1.40;;
48098;SDS011;33877;47.444;18.934;2022-08-21T20:10:50;3.45;;;1.27;;
48098;SDS011;33877;47.444;18.934;2022-08-21T20:13:55;1.85;;;1.12;;
48098;SDS011;33877;47.444;18.934;2022-08-21T20:16:24;3.75;;;1.55;;
48098;SDS011;33877;47.444;18.934;2022-08-21T20:19:16;3.62;;;1.30;;
48098;SDS011;33877;47.444;18.934;2022-08-21T20:22:05;2.50;;;1.25;;
48098;SDS011;33877;47.444;18.934;2022-08-21T20:24:41;2.28;;;1.30;;